createdAt,value
2019-03-18T00:00:28.868Z,970.75
2019-03-18T00:01:28.905Z,970.74
2019-03-18T00:02:28.974Z,970.73
2019-03-18T00:03:28.991Z,970.72
2019-03-18T00:04:29.054Z,970.70
2019-03-18T00:05:29.104Z,970.72
2019-03-18T00:06:29.120Z,970.79
2019-03-18T00:07:29.167Z,970.80
2019-03-18T00:08:29.199Z,970.83
2019-03-18T00:09:29.290Z,970.84
2019-03-18T00:10:29.308Z,970.84
2019-03-18T00:11:29.335Z,970.81
2019-03-18T00:12:29.370Z,970.79
2019-03-18T00:13:29.422Z,970.77
2019-03-18T00:14:29.464Z,970.76
2019-03-18T00:15:29.521Z,970.73
2019-03-18T00:16:29.587Z,970.68
2019-03-18T00:17:29.590Z,970.60
2019-03-18T00:18:29.628Z,970.63
2019-03-18T00:19:29.667Z,970.65
2019-03-18T00:20:29.776Z,970.66
2019-03-18T00:21:29.754Z,970.60
2019-03-18T00:22:29.816Z,970.62
2019-03-18T00:23:29.846Z,970.59
2019-03-18T00:24:29.881Z,970.60
2019-03-18T00:25:29.940Z,970.54
2019-03-18T00:26:29.964Z,970.55
2019-03-18T00:27:30.007Z,970.57
2019-03-18T00:28:30.050Z,970.55
2019-03-18T00:29:30.161Z,970.54
2019-03-18T00:30:30.164Z,970.49
2019-03-18T00:31:30.175Z,970.49
2019-03-18T00:32:30.219Z,970.54
2019-03-18T00:33:30.260Z,970.52
2019-03-18T00:34:30.309Z,970.51
2019-03-18T00:35:30.366Z,970.54
2019-03-18T00:36:30.385Z,970.51
2019-03-18T00:37:30.424Z,970.55
2019-03-18T00:38:30.466Z,970.56
2019-03-18T00:39:30.510Z,970.51
2019-03-18T00:40:30.574Z,970.48
2019-03-18T00:41:30.622Z,970.44
2019-03-18T00:42:30.698Z,970.45
2019-03-18T00:43:30.726Z,970.44
2019-03-18T00:44:30.719Z,970.44
2019-03-18T00:45:30.774Z,970.46
2019-03-18T00:46:30.900Z,970.48
2019-03-18T00:47:30.857Z,970.49
2019-03-18T00:48:30.891Z,970.42
2019-03-18T00:49:30.931Z,970.45
2019-03-18T00:50:30.976Z,970.38
2019-03-18T00:51:31.038Z,970.36
2019-03-18T00:52:31.059Z,970.34
2019-03-18T00:53:31.110Z,970.37
2019-03-18T00:54:31.143Z,970.32
2019-03-18T00:55:31.190Z,970.30
2019-03-18T00:56:31.262Z,970.30
2019-03-18T00:57:31.272Z,970.27
2019-03-18T00:58:31.311Z,970.25
2019-03-18T00:59:31.353Z,970.26
2019-03-18T01:00:31.396Z,970.25
2019-03-18T01:01:31.458Z,970.33
2019-03-18T01:02:31.504Z,970.31
2019-03-18T01:03:31.524Z,970.33
2019-03-18T01:04:31.572Z,970.35
2019-03-18T01:05:31.615Z,970.42
2019-03-18T01:06:31.670Z,970.39
2019-03-18T01:07:31.695Z,970.42
2019-03-18T01:08:31.741Z,970.38
2019-03-18T01:09:31.781Z,970.42
2019-03-18T01:10:31.823Z,970.42
2019-03-18T01:11:31.884Z,970.42
2019-03-18T01:12:31.908Z,970.45
2019-03-18T01:13:31.951Z,970.37
2019-03-18T01:14:31.994Z,970.33
2019-03-18T01:15:32.032Z,970.34
2019-03-18T01:16:32.097Z,970.33
2019-03-18T01:17:32.148Z,970.34
2019-03-18T01:18:32.193Z,970.31
2019-03-18T01:19:32.205Z,970.30
2019-03-18T01:20:32.254Z,970.24
2019-03-18T01:21:32.292Z,970.23
2019-03-18T01:22:32.355Z,970.22
2019-03-18T01:23:32.380Z,970.22
2019-03-18T01:24:32.420Z,970.17
2019-03-18T01:25:32.519Z,970.18
2019-03-18T01:26:32.502Z,970.13
2019-03-18T01:27:32.569Z,970.15
2019-03-18T01:28:32.598Z,970.11
2019-03-18T01:29:32.633Z,970.09
2019-03-18T01:30:32.679Z,970.09
2019-03-18T01:31:32.714Z,970.11
2019-03-18T01:32:32.858Z,970.08
2019-03-18T01:33:32.811Z,970.06
2019-03-18T01:34:32.853Z,970.08
2019-03-18T01:35:32.892Z,970.07
2019-03-18T01:36:32.933Z,970.08
2019-03-18T01:37:32.999Z,970.10
2019-03-18T01:38:33.017Z,970.09
2019-03-18T01:39:33.076Z,970.10
2019-03-18T01:40:33.100Z,970.10
2019-03-18T01:41:33.147Z,970.09
2019-03-18T01:42:33.207Z,970.08
2019-03-18T01:43:33.231Z,970.07
2019-03-18T01:44:33.271Z,970.08
2019-03-18T01:45:40.608Z,970.06
2019-03-18T01:46:33.359Z,970.05
2019-03-18T01:47:33.421Z,970.06
2019-03-18T01:48:33.464Z,970.05
2019-03-18T01:49:33.487Z,970.09
2019-03-18T01:50:33.538Z,970.11
2019-03-18T01:51:33.574Z,970.14
2019-03-18T01:52:33.614Z,970.18
2019-03-18T01:53:33.672Z,970.20
2019-03-18T01:54:33.699Z,970.22
2019-03-18T01:55:33.749Z,970.19
2019-03-18T01:56:33.797Z,970.16
2019-03-18T01:57:33.828Z,970.15
2019-03-18T01:58:33.907Z,970.20
2019-03-18T01:59:33.916Z,970.19
2019-03-18T02:00:33.954Z,970.21
2019-03-18T02:01:33.999Z,970.21
2019-03-18T02:02:34.042Z,970.25
2019-03-18T02:03:34.102Z,970.21
2019-03-18T02:04:34.126Z,970.21
2019-03-18T02:05:34.169Z,970.20
2019-03-18T02:06:34.213Z,970.15
2019-03-18T02:07:34.254Z,970.12
2019-03-18T02:08:34.315Z,970.12
2019-03-18T02:09:34.341Z,970.13
2019-03-18T02:10:34.385Z,970.07
2019-03-18T02:11:34.424Z,970.07
2019-03-18T02:12:34.468Z,970.06
2019-03-18T02:13:34.532Z,970.04
2019-03-18T02:14:34.572Z,970.04
2019-03-18T02:15:34.592Z,970.05
2019-03-18T02:16:34.728Z,970.04
2019-03-18T02:17:34.691Z,970.06
2019-03-18T02:18:34.728Z,970.02
2019-03-18T02:19:34.786Z,970.02
2019-03-18T02:20:34.806Z,970.01
2019-03-18T02:21:34.854Z,969.98
2019-03-18T02:22:34.896Z,970.04
2019-03-18T02:23:34.994Z,970.00
2019-03-18T02:24:35.012Z,970.01
2019-03-18T02:25:35.026Z,970.04
2019-03-18T02:26:35.082Z,970.05
2019-03-18T02:27:35.102Z,970.03
2019-03-18T02:28:35.152Z,970.01
2019-03-18T02:29:35.212Z,970.03
2019-03-18T02:30:35.258Z,970.03
2019-03-18T02:31:35.278Z,970.05
2019-03-18T02:32:35.345Z,970.05
2019-03-18T02:33:35.364Z,970.09
2019-03-18T02:34:35.428Z,970.08
2019-03-18T02:35:35.481Z,970.02
2019-03-18T02:36:35.496Z,970.02
2019-03-18T02:37:35.555Z,970.02
2019-03-18T02:38:35.581Z,969.99
2019-03-18T02:39:35.643Z,969.96
2019-03-18T02:40:35.690Z,969.97
2019-03-18T02:41:35.713Z,970.03
2019-03-18T02:42:35.746Z,970.01
2019-03-18T02:43:35.787Z,970.05
2019-03-18T02:44:35.872Z,970.06
2019-03-18T02:45:35.902Z,970.02
2019-03-18T02:46:35.926Z,970.00
2019-03-18T02:47:35.959Z,970.03
2019-03-18T02:48:36.001Z,970.00
2019-03-18T02:49:36.046Z,970.04
2019-03-18T02:50:36.102Z,970.10
2019-03-18T02:51:36.128Z,970.14
2019-03-18T02:52:36.183Z,970.15
2019-03-18T02:53:36.224Z,970.19
2019-03-18T02:54:36.258Z,970.22
2019-03-18T02:55:36.330Z,970.28
2019-03-18T02:56:36.346Z,970.22
2019-03-18T02:57:36.385Z,970.31
2019-03-18T02:58:36.426Z,970.25
2019-03-18T02:59:36.485Z,970.24
2019-03-18T03:00:36.548Z,970.21
2019-03-18T03:01:36.558Z,970.19
2019-03-18T03:02:36.595Z,970.16
2019-03-18T03:03:37.098Z,970.17
2019-03-18T03:04:36.682Z,970.15
2019-03-18T03:05:36.758Z,970.16
2019-03-18T03:06:36.771Z,970.12
2019-03-18T03:07:36.838Z,970.15
2019-03-18T03:08:36.854Z,970.14
2019-03-18T03:09:36.934Z,970.10
2019-03-18T03:10:37.387Z,970.10
2019-03-18T03:11:36.991Z,970.08
2019-03-18T03:12:37.022Z,970.10
2019-03-18T03:13:37.075Z,970.08
2019-03-18T03:14:37.142Z,970.06
2019-03-18T03:15:37.148Z,970.03
2019-03-18T03:16:37.217Z,970.04
2019-03-18T03:17:37.241Z,969.97
2019-03-18T03:18:37.283Z,969.99
2019-03-18T03:19:37.327Z,969.98
2019-03-18T03:20:37.369Z,969.93
2019-03-18T03:21:37.509Z,969.93
2019-03-18T03:22:37.446Z,969.94
2019-03-18T03:23:37.493Z,969.95
2019-03-18T03:24:37.532Z,969.95
2019-03-18T03:25:37.584Z,969.96
2019-03-18T03:26:37.647Z,969.93
2019-03-18T03:27:37.684Z,969.92
2019-03-18T03:28:37.796Z,969.89
2019-03-18T03:29:37.746Z,969.89
2019-03-18T03:30:37.801Z,969.90
2019-03-18T03:31:37.849Z,969.86
2019-03-18T03:32:37.873Z,969.90
2019-03-18T03:33:37.917Z,969.88
2019-03-18T03:34:37.997Z,969.89
2019-03-18T03:35:38.032Z,969.93
2019-03-18T03:36:38.058Z,969.96
2019-03-18T03:37:38.090Z,970.01
2019-03-18T03:38:38.129Z,970.01
2019-03-18T03:39:38.167Z,970.02
2019-03-18T03:40:38.216Z,969.99
2019-03-18T03:41:38.277Z,969.96
2019-03-18T03:42:38.351Z,970.03
2019-03-18T03:43:38.340Z,970.08
2019-03-18T03:44:38.381Z,970.12
2019-03-18T03:45:38.426Z,970.13
2019-03-18T03:46:43.734Z,970.14
2019-03-18T03:47:38.530Z,970.18
2019-03-18T03:48:38.558Z,970.24
2019-03-18T03:49:38.592Z,970.19
2019-03-18T03:50:38.635Z,970.19
2019-03-18T03:51:38.746Z,970.16
2019-03-18T03:52:38.756Z,970.16
2019-03-18T03:53:38.762Z,970.20
2019-03-18T03:54:38.807Z,970.19
2019-03-18T03:55:38.847Z,970.15
2019-03-18T03:56:38.897Z,970.17
2019-03-18T03:57:38.957Z,970.13
2019-03-18T03:58:39.089Z,970.19
2019-03-18T03:59:39.012Z,970.20
2019-03-18T04:00:39.053Z,970.17
2019-03-18T04:01:39.102Z,970.20
2019-03-18T04:02:39.158Z,970.23
2019-03-18T04:03:39.226Z,970.24
2019-03-18T04:04:39.226Z,970.24
2019-03-18T04:05:39.353Z,970.21
2019-03-18T04:06:39.315Z,970.22
2019-03-18T04:07:39.361Z,970.27
2019-03-18T04:08:39.422Z,970.27
2019-03-18T04:09:39.447Z,970.26
2019-03-18T04:10:39.478Z,970.27
2019-03-18T04:11:39.521Z,970.33
2019-03-18T04:12:39.571Z,970.32
2019-03-18T04:13:39.630Z,970.32
2019-03-18T04:14:39.650Z,970.35
2019-03-18T04:15:39.689Z,970.45
2019-03-18T04:16:39.734Z,970.41
2019-03-18T04:17:39.776Z,970.45
2019-03-18T04:18:39.838Z,970.45
2019-03-18T04:19:39.861Z,970.52
2019-03-18T04:20:39.906Z,970.46
2019-03-18T04:21:39.951Z,970.42
2019-03-18T04:22:39.988Z,970.39
2019-03-18T04:23:40.054Z,970.38
2019-03-18T04:24:40.072Z,970.41
2019-03-18T04:25:40.114Z,970.39
2019-03-18T04:26:40.279Z,970.44
2019-03-18T04:27:40.204Z,970.43
2019-03-18T04:28:40.260Z,970.47
2019-03-18T04:29:40.310Z,970.47
2019-03-18T04:30:40.408Z,970.51
2019-03-18T04:31:40.365Z,970.54
2019-03-18T04:32:40.411Z,970.56
2019-03-18T04:33:40.496Z,970.59
2019-03-18T04:34:40.517Z,970.61
2019-03-18T04:35:40.541Z,970.67
2019-03-18T04:36:40.579Z,970.66
2019-03-18T04:37:40.629Z,970.69
2019-03-18T04:38:40.664Z,970.79
2019-03-18T04:39:40.727Z,970.77
2019-03-18T04:40:40.764Z,970.78
2019-03-18T04:41:40.789Z,970.74
2019-03-18T04:42:40.842Z,970.69
2019-03-18T04:43:40.875Z,970.72
2019-03-18T04:44:41.041Z,970.72
2019-03-18T04:45:42.114Z,970.67
2019-03-18T04:46:41.003Z,970.71
2019-03-18T04:47:41.053Z,970.67
2019-03-18T04:48:41.091Z,970.66
2019-03-18T04:49:41.157Z,970.71
2019-03-18T04:50:41.170Z,970.72
2019-03-18T04:51:41.260Z,970.76
2019-03-18T04:52:41.257Z,970.73
2019-03-18T04:53:41.300Z,970.71
2019-03-18T04:54:41.363Z,970.76
2019-03-18T04:55:41.385Z,970.77
2019-03-18T04:56:41.427Z,970.78
2019-03-18T04:57:41.476Z,970.75
2019-03-18T04:58:41.521Z,970.75
2019-03-18T04:59:41.574Z,970.74
2019-03-18T05:00:41.618Z,970.76
2019-03-18T05:01:41.641Z,970.78
2019-03-18T05:02:41.690Z,970.76
2019-03-18T05:03:41.726Z,970.78
2019-03-18T05:04:41.785Z,970.77
2019-03-18T05:05:41.833Z,970.81
2019-03-18T05:06:41.852Z,970.81
2019-03-18T05:07:41.899Z,970.81
2019-03-18T05:08:41.941Z,970.78
2019-03-18T05:09:41.977Z,970.79
2019-03-18T05:10:42.040Z,970.81
2019-03-18T05:11:42.070Z,970.84
2019-03-18T05:12:42.107Z,970.85
2019-03-18T05:13:42.250Z,970.84
2019-03-18T05:14:42.195Z,970.84
2019-03-18T05:15:42.258Z,970.86
2019-03-18T05:16:42.281Z,970.89
2019-03-18T05:17:42.318Z,970.89
2019-03-18T05:18:42.383Z,970.86
2019-03-18T05:19:42.401Z,970.83
2019-03-18T05:20:42.471Z,970.84
2019-03-18T05:21:42.590Z,970.87
2019-03-18T05:22:42.526Z,970.83
2019-03-18T05:23:42.577Z,970.86
2019-03-18T05:24:42.617Z,970.87
2019-03-18T05:25:42.684Z,970.87
2019-03-18T05:26:42.699Z,970.87
2019-03-18T05:27:42.749Z,970.86
2019-03-18T05:28:42.851Z,970.93
2019-03-18T05:29:42.837Z,970.93
2019-03-18T05:30:42.893Z,970.91
2019-03-18T05:31:42.917Z,970.92
2019-03-18T05:32:42.958Z,970.94
2019-03-18T05:33:43.023Z,970.94
2019-03-18T05:34:43.042Z,970.90
2019-03-18T05:35:43.135Z,970.92
2019-03-18T05:36:43.122Z,970.93
2019-03-18T05:37:43.173Z,970.93
2019-03-18T05:38:43.210Z,970.95
2019-03-18T05:39:43.258Z,970.96
2019-03-18T05:40:43.316Z,970.93
2019-03-18T05:41:43.335Z,970.95
2019-03-18T05:42:43.418Z,971.00
2019-03-18T05:43:43.428Z,970.99
2019-03-18T05:44:43.474Z,970.98
2019-03-18T05:45:43.522Z,970.99
2019-03-18T05:46:43.567Z,971.05
2019-03-18T05:47:43.590Z,971.05
2019-03-18T05:48:43.644Z,971.09
2019-03-18T05:49:43.800Z,971.11
2019-03-18T05:50:43.725Z,971.11
2019-03-18T05:51:43.787Z,971.16
2019-03-18T05:52:43.850Z,971.14
2019-03-18T05:53:43.854Z,971.13
2019-03-18T05:54:43.888Z,971.15
2019-03-18T05:55:43.940Z,971.14
2019-03-18T05:56:43.991Z,971.21
2019-03-18T05:57:44.018Z,971.20
2019-03-18T05:58:44.168Z,971.20
2019-03-18T05:59:44.114Z,971.23
2019-03-18T06:00:44.187Z,971.24
2019-03-18T06:01:44.220Z,971.25
2019-03-18T06:02:46.869Z,971.30
2019-03-18T06:03:44.272Z,971.32
2019-03-18T06:04:44.313Z,971.32
2019-03-18T06:05:44.479Z,971.33
2019-03-18T06:06:44.441Z,971.31
2019-03-18T06:07:44.461Z,971.36
2019-03-18T06:08:44.482Z,971.37
2019-03-18T06:09:44.533Z,971.42
2019-03-18T06:10:44.569Z,971.40
2019-03-18T06:11:44.610Z,971.43
2019-03-18T06:12:44.677Z,971.40
2019-03-18T06:13:44.700Z,971.39
2019-03-18T06:14:44.745Z,971.43
2019-03-18T06:15:44.788Z,971.42
2019-03-18T06:16:44.855Z,971.37
2019-03-18T06:17:52.429Z,971.36
2019-03-18T06:18:44.910Z,971.37
2019-03-18T06:19:45.061Z,971.41
2019-03-18T06:20:45.000Z,971.48
2019-03-18T06:21:45.043Z,971.49
2019-03-18T06:22:45.119Z,971.53
2019-03-18T06:23:45.117Z,971.55
2019-03-18T06:24:45.160Z,971.55
2019-03-18T06:25:45.236Z,971.60
2019-03-18T06:26:45.255Z,971.62
2019-03-18T06:27:45.315Z,971.63
2019-03-18T06:28:45.330Z,971.65
2019-03-18T06:29:45.378Z,971.63
2019-03-18T06:30:45.425Z,971.61
2019-03-18T06:31:45.461Z,971.66
2019-03-18T06:32:45.526Z,971.70
2019-03-18T06:33:45.840Z,971.69
2019-03-18T06:34:45.590Z,971.76
2019-03-18T06:35:45.630Z,971.79
2019-03-18T06:36:45.670Z,971.78
2019-03-18T06:37:45.735Z,971.82
2019-03-18T06:38:45.766Z,971.78
2019-03-18T06:39:45.803Z,971.78
2019-03-18T06:40:45.842Z,971.81
2019-03-18T06:41:45.886Z,971.81
2019-03-18T06:42:45.960Z,971.84
2019-03-18T06:43:45.991Z,971.86
2019-03-18T06:44:46.031Z,971.83
2019-03-18T06:45:46.056Z,971.84
2019-03-18T06:46:46.107Z,971.87
2019-03-18T06:47:46.212Z,971.89
2019-03-18T06:48:46.216Z,971.89
2019-03-18T06:49:46.234Z,971.93
2019-03-18T06:50:46.280Z,971.91
2019-03-18T06:51:46.333Z,971.96
2019-03-18T06:52:46.361Z,971.95
2019-03-18T06:53:46.427Z,971.99
2019-03-18T06:54:46.459Z,972.04
2019-03-18T06:55:46.486Z,972.07
2019-03-18T06:56:46.553Z,972.10
2019-03-18T06:57:46.573Z,972.09
2019-03-18T06:58:46.613Z,972.09
2019-03-18T06:59:46.682Z,972.13
2019-03-18T07:00:46.698Z,972.09
2019-03-18T07:01:46.741Z,972.15
2019-03-18T07:02:46.788Z,972.14
2019-03-18T07:03:46.828Z,972.10
2019-03-18T07:04:46.894Z,972.08
2019-03-18T07:05:46.933Z,972.11
2019-03-18T07:06:46.953Z,972.10
2019-03-18T07:07:46.997Z,972.16
2019-03-18T07:08:47.041Z,972.25
2019-03-18T07:09:47.109Z,972.26
2019-03-18T07:10:47.176Z,972.25
2019-03-18T07:11:47.168Z,972.24
2019-03-18T07:12:47.215Z,972.27
2019-03-18T07:13:47.256Z,972.25
2019-03-18T07:14:47.316Z,972.28
2019-03-18T07:15:47.339Z,972.35
2019-03-18T07:16:47.381Z,972.36
2019-03-18T07:17:47.500Z,972.37
2019-03-18T07:18:47.469Z,972.38
2019-03-18T07:19:47.533Z,972.38
2019-03-18T07:20:47.576Z,972.43
2019-03-18T07:21:47.599Z,972.42
2019-03-18T07:22:47.638Z,972.47
2019-03-18T07:23:47.680Z,972.52
2019-03-18T07:24:47.810Z,972.50
2019-03-18T07:25:47.773Z,972.52
2019-03-18T07:26:47.810Z,972.52
2019-03-18T07:27:47.855Z,972.53
2019-03-18T07:28:47.891Z,972.53
2019-03-18T07:29:47.975Z,972.58
2019-03-18T07:30:47.982Z,972.63
2019-03-18T07:31:48.090Z,972.66
2019-03-18T07:32:48.064Z,972.71
2019-03-18T07:33:48.103Z,972.77
2019-03-18T07:34:48.170Z,972.75
2019-03-18T07:35:48.208Z,972.74
2019-03-18T07:36:48.238Z,972.73
2019-03-18T07:37:48.283Z,972.69
2019-03-18T07:38:48.343Z,972.69
2019-03-18T07:39:48.362Z,972.73
2019-03-18T07:40:48.440Z,972.75
2019-03-18T07:41:48.447Z,972.80
2019-03-18T07:42:48.502Z,972.80
2019-03-18T07:43:48.533Z,972.79
2019-03-18T07:44:48.573Z,972.84
2019-03-18T07:45:48.656Z,972.82
2019-03-18T07:46:48.664Z,972.87
2019-03-18T07:47:48.704Z,972.89
2019-03-18T07:48:48.758Z,972.87
2019-03-18T07:49:48.794Z,972.92
2019-03-18T07:50:48.853Z,972.92
2019-03-18T07:51:48.928Z,972.97
2019-03-18T07:52:48.960Z,972.94
2019-03-18T07:53:48.963Z,972.97
2019-03-18T07:54:49.017Z,972.99
2019-03-18T07:55:49.128Z,972.99
2019-03-18T07:56:49.100Z,973.04
2019-03-18T07:57:49.145Z,973.03
2019-03-18T07:58:49.194Z,973.06
2019-03-18T07:59:49.223Z,973.13
2019-03-18T08:00:49.318Z,973.16
2019-03-18T08:01:49.453Z,973.17
2019-03-18T08:02:49.379Z,973.16
2019-03-18T08:03:49.397Z,973.16
2019-03-18T08:04:49.452Z,973.18
2019-03-18T08:05:49.485Z,973.22
2019-03-18T08:06:49.546Z,973.19
2019-03-18T08:07:49.571Z,973.21
2019-03-18T08:08:49.655Z,973.26
2019-03-18T08:09:49.661Z,973.26
2019-03-18T08:10:49.699Z,973.29
2019-03-18T08:11:49.769Z,973.30
2019-03-18T08:12:49.789Z,973.32
2019-03-18T08:13:49.833Z,973.34
2019-03-18T08:14:49.879Z,973.35
2019-03-18T08:15:49.962Z,973.33
2019-03-18T08:16:49.985Z,973.42
2019-03-18T08:17:50.035Z,973.36
2019-03-18T08:18:50.057Z,973.37
2019-03-18T08:19:50.122Z,973.43
2019-03-18T08:20:50.155Z,973.42
2019-03-18T08:21:50.175Z,973.45
2019-03-18T08:22:50.255Z,973.51
2019-03-18T08:23:50.284Z,973.52
2019-03-18T08:24:50.313Z,973.57
2019-03-18T08:25:50.361Z,973.55
2019-03-18T08:26:50.396Z,973.57
2019-03-18T08:27:50.460Z,973.60
2019-03-18T08:28:50.484Z,973.58
2019-03-18T08:29:50.528Z,973.64
2019-03-18T08:30:50.580Z,973.64
2019-03-18T08:31:50.612Z,973.64
2019-03-18T08:32:50.682Z,973.68
2019-03-18T08:33:50.705Z,973.71
2019-03-18T08:34:50.756Z,973.67
2019-03-18T08:35:50.845Z,973.66
2019-03-18T08:36:50.838Z,973.65
2019-03-18T08:37:50.907Z,973.72
2019-03-18T08:38:50.920Z,973.67
2019-03-18T08:39:50.967Z,973.66
2019-03-18T08:40:51.010Z,973.64
2019-03-18T08:41:51.055Z,973.63
2019-03-18T08:42:51.117Z,973.68
2019-03-18T08:43:51.175Z,973.72
2019-03-18T08:44:51.183Z,973.70
2019-03-18T08:45:51.236Z,973.69
2019-03-18T08:46:51.279Z,973.69
2019-03-18T08:47:51.313Z,973.69
2019-03-18T08:48:55.771Z,973.67
2019-03-18T08:49:51.408Z,973.69
2019-03-18T08:50:51.461Z,973.72
2019-03-18T08:51:51.490Z,973.75
2019-03-18T08:52:51.542Z,973.76
2019-03-18T08:53:51.600Z,973.80
2019-03-18T08:54:51.626Z,973.80
2019-03-18T08:55:51.676Z,973.73
2019-03-18T08:56:51.711Z,973.84
2019-03-18T08:57:51.779Z,973.82
2019-03-18T08:58:51.817Z,973.84
2019-03-18T08:59:51.852Z,973.80
2019-03-18T09:00:51.897Z,973.88
2019-03-18T09:01:51.941Z,973.84
2019-03-18T09:02:52.013Z,973.89
2019-03-18T09:03:52.068Z,973.88
2019-03-18T09:04:52.069Z,973.88
2019-03-18T09:05:52.114Z,973.93
2019-03-18T09:06:52.162Z,973.92
2019-03-18T09:07:52.206Z,973.92
2019-03-18T09:08:52.298Z,974.01
2019-03-18T09:09:52.306Z,973.98
2019-03-18T09:10:52.364Z,974.03
2019-03-18T09:11:52.408Z,974.02
2019-03-18T09:12:52.449Z,974.00
2019-03-18T09:13:52.508Z,974.03
2019-03-18T09:14:52.535Z,974.01
2019-03-18T09:15:52.581Z,974.00
2019-03-18T09:16:52.627Z,974.02
2019-03-18T09:17:52.681Z,974.00
2019-03-18T09:18:52.762Z,974.03
2019-03-18T09:19:52.802Z,974.05
2019-03-18T09:20:52.826Z,974.06
2019-03-18T09:21:52.870Z,974.03
2019-03-18T09:22:52.915Z,974.07
2019-03-18T09:23:52.973Z,974.03
2019-03-18T09:24:53.034Z,974.03
2019-03-18T09:25:53.061Z,974.07
2019-03-18T09:27:01.985Z,974.06
2019-03-18T09:27:53.148Z,974.03
2019-03-18T09:28:53.272Z,974.06
2019-03-18T09:29:53.262Z,974.09
2019-03-18T09:30:53.291Z,974.07
2019-03-18T09:31:53.336Z,974.10
2019-03-18T09:32:53.388Z,974.06
2019-03-18T09:33:53.431Z,974.06
2019-03-18T09:34:54.782Z,974.06
2019-03-18T09:35:53.525Z,974.06
2019-03-18T09:36:53.587Z,974.08
2019-03-18T09:37:53.625Z,974.10
2019-03-18T09:38:53.675Z,974.12
2019-03-18T09:39:53.831Z,974.13
2019-03-18T09:40:53.780Z,974.13
2019-03-18T09:41:53.816Z,974.12
2019-03-18T09:42:53.869Z,974.13
2019-03-18T09:43:53.938Z,974.14
2019-03-18T09:44:53.981Z,974.14
2019-03-18T09:45:54.601Z,974.14
2019-03-18T09:46:54.054Z,974.21
2019-03-18T09:47:56.096Z,974.17
2019-03-18T09:48:54.149Z,974.22
2019-03-18T09:49:54.233Z,974.25
2019-03-18T09:50:54.270Z,974.23
2019-03-18T09:51:54.301Z,974.31
2019-03-18T09:52:54.355Z,974.26
2019-03-18T09:53:54.410Z,974.26
2019-03-18T09:54:54.446Z,974.18
2019-03-18T09:55:54.525Z,974.24
2019-03-18T09:56:54.545Z,974.27
2019-03-18T09:57:54.612Z,974.21
2019-03-18T09:58:54.647Z,974.31
2019-03-18T09:59:54.697Z,974.21
2019-03-18T10:00:55.455Z,974.21
2019-03-18T10:01:54.797Z,974.16
2019-03-18T10:02:54.843Z,974.20
2019-03-18T10:03:54.892Z,974.26
2019-03-18T10:04:54.945Z,974.23
2019-03-18T10:05:55.020Z,974.17
2019-03-18T10:06:55.057Z,974.24
2019-03-18T10:07:55.099Z,974.22
2019-03-18T10:08:55.146Z,974.22
2019-03-18T10:09:55.193Z,974.21
2019-03-18T10:10:55.280Z,974.21
2019-03-18T10:11:55.313Z,974.25
2019-03-18T10:12:55.344Z,974.24
2019-03-18T10:13:55.403Z,974.22
2019-03-18T10:14:55.444Z,974.25
2019-03-18T10:15:55.535Z,974.24
2019-03-18T10:16:55.544Z,974.19
2019-03-18T10:17:55.595Z,974.22
2019-03-18T10:18:55.655Z,974.26
2019-03-18T10:19:55.698Z,974.24
2019-03-18T10:20:55.772Z,974.33
2019-03-18T10:21:55.845Z,974.34
2019-03-18T10:22:55.855Z,974.36
2019-03-18T10:23:55.905Z,974.37
2019-03-18T10:24:55.960Z,974.29
2019-03-18T10:25:56.007Z,974.34
2019-03-18T10:26:56.080Z,974.32
2019-03-18T10:27:56.106Z,974.34
2019-03-18T10:28:56.156Z,974.33
2019-03-18T10:29:56.214Z,974.35
2019-03-18T10:30:56.262Z,974.37
2019-03-18T10:31:56.352Z,974.38
2019-03-18T10:32:56.377Z,974.38
2019-03-18T10:33:56.416Z,974.34
2019-03-18T10:34:56.463Z,974.35
2019-03-18T10:35:56.521Z,974.36
2019-03-18T10:36:56.596Z,974.41
2019-03-18T10:37:56.619Z,974.35
2019-03-18T10:38:56.672Z,974.34
2019-03-18T10:39:56.720Z,974.39
2019-03-18T10:40:59.482Z,974.34
2019-03-18T10:41:56.857Z,974.34
2019-03-18T10:42:56.877Z,974.31
2019-03-18T10:43:56.912Z,974.38
2019-03-18T10:44:56.980Z,974.35
2019-03-18T10:45:57.012Z,974.32
2019-03-18T10:46:57.096Z,974.38
2019-03-18T10:47:57.112Z,974.38
2019-03-18T10:48:57.162Z,974.34
2019-03-18T10:49:57.216Z,974.41
2019-03-18T10:50:57.259Z,974.42
2019-03-18T10:51:57.365Z,974.43
2019-03-18T10:52:57.382Z,974.42
2019-03-18T10:53:57.441Z,974.40
2019-03-18T10:54:57.499Z,974.47
2019-03-18T10:56:07.264Z,974.46
2019-03-18T10:56:57.597Z,974.44
2019-03-18T10:57:57.620Z,974.43
2019-03-18T10:58:57.654Z,974.47
2019-03-18T10:59:57.693Z,974.50
2019-03-18T11:00:57.742Z,974.47
2019-03-18T11:01:57.795Z,974.51
2019-03-18T11:02:57.863Z,974.47
2019-03-18T11:03:57.968Z,974.47
2019-03-18T11:04:57.940Z,974.47
2019-03-18T11:05:57.983Z,974.44
2019-03-18T11:06:58.033Z,974.47
2019-03-18T11:07:58.105Z,974.53
2019-03-18T11:08:58.128Z,974.56
2019-03-18T11:09:58.185Z,974.51
2019-03-18T11:10:58.299Z,974.54
2019-03-18T11:11:58.280Z,974.50
2019-03-18T11:12:58.338Z,974.50
2019-03-18T11:13:58.367Z,974.55
2019-03-18T11:14:58.423Z,974.54
2019-03-18T11:15:58.458Z,974.56
2019-03-18T11:16:58.508Z,974.52
2019-03-18T11:17:58.597Z,974.55
2019-03-18T11:18:58.616Z,974.55
2019-03-18T11:19:59.046Z,974.56
2019-03-18T11:20:58.699Z,974.58
2019-03-18T11:21:58.746Z,974.57
2019-03-18T11:22:58.831Z,974.56
2019-03-18T11:23:58.838Z,974.59
2019-03-18T11:24:58.888Z,974.57
2019-03-18T11:25:58.934Z,974.53
2019-03-18T11:26:59.002Z,974.53
2019-03-18T11:27:59.058Z,974.49
2019-03-18T11:28:59.110Z,974.47
2019-03-18T11:29:59.150Z,974.44
2019-03-18T11:30:59.186Z,974.44
2019-03-18T11:31:59.222Z,974.46
2019-03-18T11:32:59.268Z,974.47
2019-03-18T11:33:59.346Z,974.46
2019-03-18T11:34:59.366Z,974.48
2019-03-18T11:35:59.509Z,974.48
2019-03-18T11:36:59.469Z,974.43
2019-03-18T11:37:59.517Z,974.39
2019-03-18T11:38:59.580Z,974.42
2019-03-18T11:39:59.615Z,974.44
2019-03-18T11:40:59.667Z,974.41
2019-03-18T11:41:59.715Z,974.45
2019-03-18T11:42:59.760Z,974.45
2019-03-18T11:43:59.847Z,974.52
2019-03-18T11:44:59.880Z,974.52
2019-03-18T11:45:59.903Z,974.54
2019-03-18T11:46:59.952Z,974.43
2019-03-18T11:48:00.027Z,974.37
2019-03-18T11:49:00.065Z,974.39
2019-03-18T11:50:10.480Z,974.34
2019-03-18T11:51:00.153Z,974.32
2019-03-18T11:52:00.229Z,974.30
2019-03-18T11:53:00.252Z,974.31
2019-03-18T11:54:00.312Z,974.26
2019-03-18T11:55:00.403Z,974.29
2019-03-18T11:56:00.402Z,974.27
2019-03-18T11:57:00.450Z,974.34
2019-03-18T11:58:00.500Z,974.33
2019-03-18T11:59:00.552Z,974.30
2019-03-18T12:00:00.632Z,974.33
2019-03-18T12:01:00.652Z,974.27
2019-03-18T12:02:00.713Z,974.25
2019-03-18T12:03:00.751Z,974.31
2019-03-18T12:04:00.795Z,974.30
2019-03-18T12:05:00.915Z,974.27
2019-03-18T12:06:00.931Z,974.29
2019-03-18T12:07:00.969Z,974.23
2019-03-18T12:08:01.002Z,974.28
2019-03-18T12:09:01.054Z,974.25
2019-03-18T12:10:01.181Z,974.33
2019-03-18T12:11:01.177Z,974.21
2019-03-18T12:12:01.221Z,974.35
2019-03-18T12:13:01.264Z,974.27
2019-03-18T12:14:01.305Z,974.29
2019-03-18T12:15:01.422Z,974.28
2019-03-18T12:16:01.424Z,974.30
2019-03-18T12:17:01.453Z,974.31
2019-03-18T12:18:01.504Z,974.24
2019-03-18T12:19:01.567Z,974.26
2019-03-18T12:20:01.622Z,974.22
2019-03-18T12:21:01.684Z,974.15
2019-03-18T12:22:01.706Z,974.21
2019-03-18T12:23:01.761Z,974.29
2019-03-18T12:24:01.826Z,974.26
2019-03-18T12:25:01.867Z,974.20
2019-03-18T12:26:01.942Z,974.26
2019-03-18T12:27:01.977Z,974.28
2019-03-18T12:28:05.000Z,974.18
2019-03-18T12:29:02.069Z,974.17